Time;durP1;ratioP1;P1;durP2;ratioP2;P2;SDS_P1;SDS_P2;PMS_P1;PMS_P2;Temp;Humidity;BMP_temperature;BMP_pressure;BME280_temperature;BME280_humidity;BME280_pressure;Samples;Min_cycle;Max_cycle;Signal;HPM_P1;HPM_P2
2024/04/19 00:00:13;;;;;;;1.50;0.60;;;;;18.20;100382.00;;;;2230556;26;20361;-57
2024/04/19 00:01:14;;;;;;;1.93;0.77;;;;;18.20;100379.00;;;;2230724;26;20268;-59
2024/04/19 00:02:14;;;;;;;1.50;0.60;;;;;18.20;100377.00;;;;2218855;26;20261;-57
2024/04/19 00:03:14;;;;;;;2.43;0.77;;;;;18.20;100369.00;;;;2231988;26;20303;-58
2024/04/19 00:04:15;;;;;;;2.00;0.70;;;;;18.20;100365.00;;;;2220919;26;20262;-58
2024/04/19 00:05:15;;;;;;;1.80;0.60;;;;;18.20;100358.00;;;;2218394;26;20284;-58
2024/04/19 00:06:15;;;;;;;2.87;0.70;;;;;18.10;100362.00;;;;2217611;26;20263;-57
2024/04/19 00:07:16;;;;;;;2.03;0.87;;;;;18.20;100366.00;;;;2206538;26;20301;-58
2024/04/19 00:08:16;;;;;;;1.80;0.70;;;;;18.10;100358.00;;;;2217732;26;20273;-58
2024/04/19 00:09:16;;;;;;;2.47;0.70;;;;;18.10;100358.00;;;;2216946;26;20303;-58
2024/04/19 00:10:17;;;;;;;1.70;0.70;;;;;18.20;100361.00;;;;2217913;26;20347;-57
2024/04/19 00:11:17;;;;;;;1.80;0.63;;;;;18.20;100357.00;;;;2209302;26;20362;-58
2024/04/19 00:12:17;;;;;;;1.80;0.70;;;;;18.20;100356.00;;;;2216308;26;20266;-57
2024/04/19 00:13:18;;;;;;;1.70;0.60;;;;;18.20;100357.00;;;;2216303;26;20258;-57
2024/04/19 00:14:18;;;;;;;2.67;0.70;;;;;18.20;100363.00;;;;2216686;26;20321;-57
2024/04/19 00:15:18;;;;;;;1.73;0.57;;;;;18.20;100368.00;;;;2217600;26;20255;-58
2024/04/19 00:16:19;;;;;;;1.97;0.60;;;;;18.10;100366.00;;;;2206116;26;20363;-57
2024/04/19 00:17:19;;;;;;;1.50;0.60;;;;;18.20;100369.00;;;;2218838;26;20289;-57
2024/04/19 00:18:20;;;;;;;2.10;0.60;;;;;18.10;100365.00;;;;2213679;26;20548;-58
2024/04/19 00:19:20;;;;;;;2.00;0.60;;;;;18.10;100366.00;;;;2217521;26;20255;-57
2024/04/19 00:20:21;;;;;;;2.53;0.67;;;;;18.20;100355.00;;;;2216599;26;20296;-58
2024/04/19 00:21:21;;;;;;;1.93;0.67;;;;;18.10;100353.00;;;;2208850;26;20861;-58
2024/04/19 00:22:22;;;;;;;2.93;0.70;;;;;18.10;100236.00;;;;2231269;26;20705;-57
2024/04/19 00:23:22;;;;;;;1.87;0.60;;;;;18.10;100356.00;;;;2227596;26;20912;-58
2024/04/19 00:24:23;;;;;;;1.80;0.70;;;;;18.20;100354.00;;;;2229121;26;20723;-57
2024/04/19 00:25:23;;;;;;;1.87;0.60;;;;;18.20;100344.00;;;;2219018;26;20258;-57
2024/04/19 00:26:24;;;;;;;2.60;0.50;;;;;18.10;100352.00;;;;2220252;26;20257;-58
2024/04/19 00:27:24;;;;;;;1.80;0.70;;;;;18.10;100351.00;;;;2246494;26;20252;-57
2024/04/19 00:28:25;;;;;;;2.03;0.67;;;;;18.20;100342.00;;;;2239214;26;20286;-57
2024/04/19 00:29:25;;;;;;;2.37;0.60;;;;;18.10;100337.00;;;;2218014;26;20291;-58
2024/04/19 00:30:26;;;;;;;1.87;0.70;;;;;18.20;100335.00;;;;2218716;26;21099;-57
2024/04/19 00:31:26;;;;;;;2.33;0.70;;;;;18.20;100345.00;;;;2210091;26;20289;-57
2024/04/19 00:32:26;;;;;;;2.30;0.80;;;;;18.10;100335.00;;;;2235026;26;20319;-57
2024/04/19 00:33:27;;;;;;;1.93;0.67;;;;;18.10;100338.00;;;;2240617;26;20345;-57
2024/04/19 00:34:27;;;;;;;1.73;0.60;;;;;18.10;100333.00;;;;2225090;26;20793;-58
2024/04/19 00:35:27;;;;;;;2.30;0.70;;;;;18.10;100343.00;;;;2225201;26;20710;-58
2024/04/19 00:36:28;;;;;;;1.70;0.60;;;;;18.10;100336.00;;;;2207670;26;20303;-57
2024/04/19 00:37:28;;;;;;;1.97;0.60;;;;;18.10;100335.00;;;;2217438;26;22657;-57
2024/04/19 00:38:28;;;;;;;2.20;0.80;;;;;18.20;100331.00;;;;2218197;26;20309;-58
2024/04/19 00:39:29;;;;;;;1.80;0.70;;;;;18.10;100334.00;;;;2216261;26;20302;-58
2024/04/19 00:40:29;;;;;;;2.17;0.70;;;;;18.10;100333.00;;;;2227311;26;20344;-57
2024/04/19 00:41:29;;;;;;;1.90;0.70;;;;;18.10;100318.00;;;;2208150;26;20308;-57
2024/04/19 00:42:30;;;;;;;3.83;0.70;;;;;18.10;100336.00;;;;2230496;26;20305;-57
2024/04/19 00:43:31;;;;;;;1.60;0.50;;;;;18.20;100330.00;;;;2231509;26;20261;-57
2024/04/19 00:44:31;;;;;;;1.80;0.60;;;;;18.10;100319.00;;;;2214478;26;20472;-57
2024/04/19 00:45:35;;;;;;;1.70;0.50;;;;;18.20;100319.00;;;;2217159;26;20294;-57
2024/04/19 00:46:36;;;;;;;1.55;0.40;;;;;18.10;100318.00;;;;2213433;26;20281;-58
2024/04/19 00:47:36;;;;;;;1.80;0.47;;;;;18.10;100315.00;;;;2246630;26;20239;-57
2024/04/19 00:48:37;;;;;;;1.90;0.50;;;;;18.10;100317.00;;;;2226273;26;20255;-58
2024/04/19 00:49:38;;;;;;;1.85;0.60;;;;;18.10;100319.00;;;;2218724;26;20258;-57
2024/04/19 00:50:38;;;;;;;1.90;0.60;;;;;18.10;100315.00;;;;2222116;26;20253;-57
2024/04/19 00:51:39;;;;;;;1.80;0.50;;;;;18.10;100318.00;;;;2192246;26;20347;-57
2024/04/19 00:52:39;;;;;;;1.90;0.63;;;;;18.10;100321.00;;;;2206582;26;20376;-57
2024/04/19 00:53:39;;;;;;;2.90;0.80;;;;;18.10;100331.00;;;;2222715;26;20270;-57
2024/04/19 00:54:40;;;;;;;2.20;0.77;;;;;18.10;100323.00;;;;2216720;26;20286;-58
2024/04/19 00:55:40;;;;;;;2.53;0.70;;;;;18.10;100321.00;;;;2216895;26;20773;-57
2024/04/19 00:56:41;;;;;;;1.50;0.50;;;;;18.10;100289.00;;;;2203310;26;20360;-57
2024/04/19 00:57:42;;;;;;;1.65;0.50;;;;;18.10;100320.00;;;;2202626;26;20252;-57
2024/04/19 00:58:42;;;;;;;1.60;0.60;;;;;18.10;100319.00;;;;2194492;26;20266;-57
2024/04/19 00:59:43;;;;;;;1.67;0.60;;;;;18.10;100314.00;;;;2218581;26;20485;-57
2024/04/19 01:00:43;;;;;;;1.50;0.47;;;;;18.10;100296.00;;;;2221974;26;20257;-57
2024/04/19 01:01:43;;;;;;;1.60;0.60;;;;;18.10;100316.00;;;;2205046;26;20301;-57
2024/04/19 01:02:44;;;;;;;2.03;0.60;;;;;18.10;100296.00;;;;2225374;26;20288;-58
2024/04/19 01:03:44;;;;;;;1.63;0.50;;;;;18.10;100309.00;;;;2220076;26;20238;-57
2024/04/19 01:04:44;;;;;;;1.50;0.50;;;;;18.10;100295.00;;;;2208429;26;20259;-57
2024/04/19 01:05:45;;;;;;;2.27;0.70;;;;;18.10;100296.00;;;;2208212;26;20301;-58
2024/04/19 01:06:45;;;;;;;2.03;0.57;;;;;18.10;100295.00;;;;2220387;26;20249;-58
2024/04/19 01:07:46;;;;;;;1.50;0.50;;;;;18.10;100285.00;;;;2231071;26;20339;-61
2024/04/19 01:08:46;;;;;;;1.67;0.60;;;;;18.10;100287.00;;;;2231619;26;20288;-58
2024/04/19 01:09:48;;;;;;;1.60;0.50;;;;;18.10;100276.00;;;;2225391;26;21416;-58
2024/04/19 01:10:48;;;;;;;1.80;0.50;;;;;18.10;100269.00;;;;2219673;26;20258;-57
2024/04/19 01:11:49;;;;;;;1.70;0.70;;;;;18.10;100276.00;;;;2191093;26;20321;-57
2024/04/19 01:12:49;;;;;;;2.23;0.60;;;;;18.10;100267.00;;;;2223497;26;20270;-58
2024/04/19 01:13:49;;;;;;;2.67;0.67;;;;;18.10;100263.00;;;;2215977;26;20254;-57
2024/04/19 01:14:50;;;;;;;1.70;0.60;;;;;18.10;100268.00;;;;2214029;26;20301;-58
2024/04/19 01:15:50;;;;;;;1.30;0.40;;;;;18.10;100268.00;;;;2215358;26;20255;-58
2024/04/19 01:16:50;;;;;;;1.70;0.53;;;;;18.10;100261.00;;;;2214585;26;20327;-57
2024/04/19 01:17:51;;;;;;;1.50;0.50;;;;;18.10;100256.00;;;;2216780;26;20367;-58
2024/04/19 01:18:51;;;;;;;2.17;0.60;;;;;18.10;100260.00;;;;2219269;26;20269;-58
2024/04/19 01:19:51;;;;;;;2.00;0.60;;;;;18.10;100249.00;;;;2217540;26;20308;-57
2024/04/19 01:20:52;;;;;;;2.17;0.60;;;;;18.10;100292.00;;;;2218186;26;20761;-58
2024/04/19 01:21:52;;;;;;;1.73;0.53;;;;;18.10;100255.00;;;;2210784;26;21087;-58
2024/04/19 01:22:53;;;;;;;1.70;0.70;;;;;18.10;100247.00;;;;2212914;26;20887;-59
2024/04/19 01:23:59;;;;;;;1.60;0.50;;;;;18.10;100248.00;;;;2229171;26;20246;-58
2024/04/19 01:25:00;;;;;;;1.85;0.80;;;;;18.10;100241.00;;;;2222109;26;20265;-57
2024/04/19 01:26:06;;;;;;;1.30;0.50;;;;;18.10;100252.00;;;;2213536;26;20683;-57
2024/04/19 01:27:09;;;;;;;1.88;0.73;;;;;18.10;100254.00;;;;2197661;26;20260;-57
2024/04/19 01:28:10;;;;;;;2.25;0.63;;;;;18.10;100235.00;;;;2230523;26;20253;-57
2024/04/19 01:29:10;;;;;;;1.95;0.60;;;;;18.10;100242.00;;;;2230887;26;20292;-57
2024/04/19 01:30:11;;;;;;;1.73;0.70;;;;;18.10;100244.00;;;;2220926;26;20359;-57
2024/04/19 01:31:11;;;;;;;1.60;0.60;;;;;18.10;100239.00;;;;2213883;26;20251;-58
2024/04/19 01:32:11;;;;;;;1.60;0.70;;;;;18.10;100229.00;;;;2208898;26;20257;-57
2024/04/19 01:33:12;;;;;;;1.77;0.60;;;;;18.10;100236.00;;;;2217738;26;20288;-58
2024/04/19 01:34:13;;;;;;;1.97;0.60;;;;;18.10;100229.00;;;;2217995;26;20254;-57
2024/04/19 01:35:13;;;;;;;2.17;0.80;;;;;18.10;100226.00;;;;2217495;26;20254;-58
2024/04/19 01:36:13;;;;;;;2.10;0.63;;;;;18.10;100226.00;;;;2215941;26;20289;-57
2024/04/19 01:37:14;;;;;;;2.53;0.67;;;;;18.10;100229.00;;;;2217510;26;20254;-58
2024/04/19 01:38:14;;;;;;;1.63;0.60;;;;;18.10;100224.00;;;;2217156;26;20248;-57
2024/04/19 01:39:14;;;;;;;1.93;0.70;;;;;18.10;100217.00;;;;2220003;26;20293;-57
2024/04/19 01:40:15;;;;;;;1.73;0.60;;;;;18.10;100212.00;;;;2217439;26;20254;-57
2024/04/19 01:41:15;;;;;;;2.53;0.50;;;;;18.10;100220.00;;;;2219653;26;20363;-57
2024/04/19 01:42:15;;;;;;;2.30;0.70;;;;;18.10;100210.00;;;;2220527;26;20258;-57
2024/04/19 01:43:15;;;;;;;1.70;0.50;;;;;18.10;100216.00;;;;2225423;26;20254;-57
2024/04/19 01:44:16;;;;;;;1.70;0.60;;;;;18.10;100211.00;;;;2219188;26;20367;-57
2024/04/19 01:45:16;;;;;;;1.93;0.60;;;;;18.10;100205.00;;;;2217596;26;20251;-57
2024/04/19 01:46:16;;;;;;;2.03;0.60;;;;;18.10;100208.00;;;;2224480;26;20251;-60
2024/04/19 01:47:17;;;;;;;1.80;0.70;;;;;18.10;100202.00;;;;2223214;26;20254;-57
2024/04/19 01:48:17;;;;;;;3.00;0.87;;;;;18.10;100200.00;;;;2244774;26;20303;-58
2024/04/19 01:49:18;;;;;;;1.73;0.70;;;;;18.10;100192.00;;;;2228118;26;20346;-58
2024/04/19 01:50:18;;;;;;;1.40;0.60;;;;;18.10;100188.00;;;;2231303;26;20348;-57
2024/04/19 01:51:18;;;;;;;1.33;0.40;;;;;18.10;100199.00;;;;2209175;26;20286;-58
2024/04/19 01:52:18;;;;;;;2.17;0.70;;;;;18.10;100194.00;;;;2231230;26;20834;-58
2024/04/19 01:53:19;;;;;;;1.47;0.50;;;;;18.10;100191.00;;;;2230905;26;21246;-57
2024/04/19 01:54:19;;;;;;;1.40;0.50;;;;;18.10;100189.00;;;;2217046;26;20299;-57
2024/04/19 01:55:19;;;;;;;2.17;0.67;;;;;18.10;100175.00;;;;2219261;26;20255;-57
2024/04/19 01:56:20;;;;;;;2.00;0.70;;;;;18.10;100174.00;;;;2210454;26;20249;-61
2024/04/19 01:57:20;;;;;;;1.60;0.50;;;;;18.10;100175.00;;;;2233210;26;20252;-58
2024/04/19 01:58:20;;;;;;;1.70;0.53;;;;;18.10;100173.00;;;;2237891;26;20303;-57
2024/04/19 01:59:21;;;;;;;2.00;0.60;;;;;18.10;100171.00;;;;2223281;26;20262;-58
2024/04/19 02:00:21;;;;;;;1.80;0.70;;;;;18.10;100165.00;;;;2220235;26;20401;-59
2024/04/19 02:01:21;;;;;;;1.80;0.70;;;;;18.10;100169.00;;;;2212007;26;20728;-57
2024/04/19 02:02:22;;;;;;;2.00;0.80;;;;;18.10;100157.00;;;;2232894;26;20277;-57
2024/04/19 02:03:23;;;;;;;2.80;0.82;;;;;18.10;100162.00;;;;2214954;26;20254;-58
2024/04/19 02:04:23;;;;;;;1.70;0.50;;;;;18.10;100162.00;;;;2217903;26;20254;-58
2024/04/19 02:05:23;;;;;;;1.60;0.50;;;;;18.10;100148.00;;;;2222548;26;20403;-57
2024/04/19 02:06:24;;;;;;;1.57;0.50;;;;;18.10;100152.00;;;;2210249;26;20305;-58
2024/04/19 02:07:24;;;;;;;1.40;0.50;;;;;18.10;100155.00;;;;2232896;26;20253;-57
2024/04/19 02:08:26;;;;;;;2.37;0.67;;;;;18.10;100153.00;;;;2239857;26;20294;-58
2024/04/19 02:09:27;;;;;;;1.50;0.50;;;;;18.10;100164.00;;;;2220975;26;20266;-57
2024/04/19 02:10:27;;;;;;;1.50;0.60;;;;;18.10;100148.00;;;;2224923;26;20273;-57
2024/04/19 02:11:27;;;;;;;1.60;0.60;;;;;18.10;100155.00;;;;2208227;26;20263;-57
2024/04/19 02:12:28;;;;;;;1.50;0.60;;;;;18.10;100148.00;;;;2215901;26;20456;-58
2024/04/19 02:13:28;;;;;;;1.60;0.50;;;;;18.10;100147.00;;;;2218097;26;20258;-57
2024/04/19 02:14:30;;;;;;;2.10;0.50;;;;;18.10;100141.00;;;;2219214;26;20258;-57
2024/04/19 02:15:30;;;;;;;1.60;0.50;;;;;18.10;100135.00;;;;2225387;26;20708;-58
2024/04/19 02:16:30;;;;;;;1.40;0.50;;;;;18.10;100143.00;;;;2207188;26;20285;-57
2024/04/19 02:17:31;;;;;;;1.73;0.60;;;;;18.10;100145.00;;;;2219092;26;20372;-57
2024/04/19 02:18:31;;;;;;;3.70;0.73;;;;;18.10;100143.00;;;;2220511;26;20722;-57
2024/04/19 02:19:39;;;;;;;2.53;0.70;;;;;18.10;100130.00;;;;2230792;26;21061;-58
2024/04/19 02:20:39;;;;;;;1.70;0.63;;;;;18.10;100137.00;;;;2223840;26;20267;-58
2024/04/19 02:21:40;;;;;;;1.53;0.60;;;;;18.10;100137.00;;;;2211366;26;20922;-58
2024/04/19 02:22:40;;;;;;;2.00;0.70;;;;;18.10;100133.00;;;;2218817;26;20259;-57
2024/04/19 02:23:42;;;;;;;1.60;0.60;;;;;18.10;100133.00;;;;2221965;26;20309;-58
2024/04/19 02:24:42;;;;;;;2.03;0.60;;;;;18.10;100123.00;;;;2225031;26;20595;-58
2024/04/19 02:25:42;;;;;;;1.80;0.53;;;;;18.10;100124.00;;;;2230899;26;20335;-58
2024/04/19 02:26:42;;;;;;;1.80;0.73;;;;;18.10;100126.00;;;;2218092;26;20269;-57
2024/04/19 02:31:44;;;;;;;1.75;0.50;;;;;18.00;100116.00;;;;2212723;26;20258;-57
2024/04/19 02:32:44;;;;;;;1.47;0.50;;;;;18.10;100111.00;;;;2217344;26;20255;-57
2024/04/19 02:33:45;;;;;;;1.60;0.50;;;;;18.00;100110.00;;;;2223737;26;20384;-58
2024/04/19 02:34:45;;;;;;;2.33;0.70;;;;;18.10;100105.00;;;;2218093;26;20258;-58
2024/04/19 02:35:45;;;;;;;1.80;0.70;;;;;18.10;100094.00;;;;2219202;26;20305;-57
2024/04/19 02:36:46;;;;;;;1.77;0.60;;;;;18.10;100091.00;;;;2215234;26;20261;-58
2024/04/19 02:37:47;;;;;;;1.40;0.40;;;;;18.10;100087.00;;;;2227776;26;20305;-58
2024/04/19 02:38:47;;;;;;;2.33;0.70;;;;;18.00;100086.00;;;;2220076;26;20293;-57
2024/04/19 02:39:48;;;;;;;1.60;0.50;;;;;18.00;100090.00;;;;2219031;26;20254;-58
2024/04/19 02:40:48;;;;;;;1.77;0.50;;;;;18.00;100082.00;;;;2224231;26;20886;-57
2024/04/19 02:41:48;;;;;;;1.80;0.50;;;;;18.10;100073.00;;;;2209473;26;20619;-57
2024/04/19 02:42:49;;;;;;;2.30;0.80;;;;;18.10;100061.00;;;;2220793;26;20592;-58
2024/04/19 02:43:49;;;;;;;2.50;0.60;;;;;18.10;100070.00;;;;2222707;26;20247;-57
2024/04/19 02:44:49;;;;;;;2.17;1.10;;;;;18.10;100073.00;;;;2219995;26;20289;-57
2024/04/19 02:45:50;;;;;;;1.73;0.60;;;;;18.00;100065.00;;;;2218253;26;20259;-57
2024/04/19 02:46:50;;;;;;;1.80;0.60;;;;;18.10;100070.00;;;;2215499;26;20367;-58
2024/04/19 02:47:50;;;;;;;2.00;0.77;;;;;18.10;100062.00;;;;2236227;26;20249;-58
2024/04/19 02:48:51;;;;;;;2.70;0.70;;;;;18.10;100060.00;;;;2230539;26;20366;-58
2024/04/19 02:49:52;;;;;;;1.45;0.52;;;;;18.00;100057.00;;;;2217494;26;20351;-58
2024/04/19 02:50:53;;;;;;;1.50;0.50;;;;;18.00;100067.00;;;;2219262;26;20259;-57
2024/04/19 02:51:53;;;;;;;1.60;0.70;;;;;18.00;100066.00;;;;2213488;26;20357;-57
2024/04/19 02:52:54;;;;;;;2.10;0.60;;;;;18.00;100060.00;;;;2220076;26;20276;-58
2024/04/19 02:53:54;;;;;;;1.97;0.60;;;;;18.10;100057.00;;;;2224766;26;20360;-57
2024/04/19 02:54:54;;;;;;;2.43;0.60;;;;;18.00;100058.00;;;;2231929;26;20280;-58
2024/04/19 02:55:56;;;;;;;2.20;0.60;;;;;18.00;100048.00;;;;2220298;26;20388;-58
2024/04/19 02:56:56;;;;;;;1.98;0.70;;;;;18.00;100046.00;;;;2216713;26;20302;-60
2024/04/19 02:57:57;;;;;;;2.00;0.57;;;;;18.00;100043.00;;;;2221747;26;20739;-58
2024/04/19 02:58:57;;;;;;;2.10;0.70;;;;;18.10;100041.00;;;;2219065;26;20258;-59
2024/04/19 02:59:57;;;;;;;5.20;0.60;;;;;18.10;100039.00;;;;2225196;26;20684;-58
2024/04/19 03:00:58;;;;;;;1.97;0.57;;;;;18.10;100040.00;;;;2218508;26;20359;-57
2024/04/19 03:01:58;;;;;;;1.73;0.60;;;;;18.10;100041.00;;;;2217395;26;20304;-59
2024/04/19 03:02:58;;;;;;;1.50;0.50;;;;;18.00;100027.00;;;;2233365;26;20246;-59
2024/04/19 03:03:59;;;;;;;1.60;0.60;;;;;18.00;100024.00;;;;2221034;26;20252;-59
2024/04/19 03:04:59;;;;;;;2.00;0.70;;;;;18.00;100026.00;;;;2224779;26;20378;-59
2024/04/19 03:05:59;;;;;;;1.67;0.50;;;;;18.00;100019.00;;;;2224042;26;20270;-57
2024/04/19 03:07:00;;;;;;;1.70;0.60;;;;;18.00;100026.00;;;;2207897;26;20308;-58
2024/04/19 03:08:00;;;;;;;3.30;0.70;;;;;18.00;100027.00;;;;2223908;26;20264;-57
2024/04/19 03:09:02;;;;;;;1.97;0.53;;;;;18.00;100027.00;;;;2225186;26;20260;-58
2024/04/19 03:10:02;;;;;;;1.60;0.60;;;;;18.00;100017.00;;;;2231371;26;20300;-58
2024/04/19 03:11:04;;;;;;;2.53;0.70;;;;;18.00;100024.00;;;;2220442;26;21050;-58
2024/04/19 03:12:04;;;;;;;2.45;0.60;;;;;18.00;100023.00;;;;2212634;26;20308;-58
2024/04/19 03:13:08;;;;;;;2.22;0.50;;;;;18.00;100015.00;;;;2223442;26;20702;-57
2024/04/19 03:14:08;;;;;;;2.30;0.65;;;;;18.00;100007.00;;;;2225122;26;20287;-58
2024/04/19 03:15:08;;;;;;;1.70;0.70;;;;;18.00;100013.00;;;;2227387;26;20620;-57
2024/04/19 03:16:09;;;;;;;1.60;0.60;;;;;18.00;100010.00;;;;2233188;26;20563;-57
2024/04/19 03:17:09;;;;;;;2.27;0.60;;;;;18.00;100006.00;;;;2213537;26;20642;-57
2024/04/19 03:18:09;;;;;;;3.00;0.60;;;;;18.00;100009.00;;;;2229606;26;20363;-57
2024/04/19 03:19:10;;;;;;;1.60;0.57;;;;;18.00;99997.00;;;;2230872;26;21057;-58
2024/04/19 03:20:10;;;;;;;1.63;0.53;;;;;18.00;100008.00;;;;2224469;26;20247;-57
2024/04/19 03:21:11;;;;;;;1.43;0.47;;;;;18.00;99990.00;;;;2231853;26;20327;-58
2024/04/19 03:22:11;;;;;;;1.70;0.60;;;;;18.10;99991.00;;;;2210278;26;20293;-57
2024/04/19 03:23:11;;;;;;;2.47;0.70;;;;;18.10;99989.00;;;;2230304;26;20251;-58
2024/04/19 03:24:12;;;;;;;1.90;0.50;;;;;18.00;99987.00;;;;2217459;26;21219;-57
2024/04/19 03:25:12;;;;;;;1.40;0.50;;;;;18.10;99984.00;;;;2218805;26;21226;-58
2024/04/19 03:26:12;;;;;;;1.93;0.60;;;;;18.00;99990.00;;;;2218443;26;20704;-57
2024/04/19 03:27:13;;;;;;;1.50;0.60;;;;;18.00;99992.00;;;;2207686;26;20595;-58
2024/04/19 03:28:13;;;;;;;1.50;0.50;;;;;18.00;99999.00;;;;2216351;26;20359;-57
2024/04/19 03:29:13;;;;;;;1.80;0.70;;;;;18.00;99977.00;;;;2220016;26;20266;-58
2024/04/19 03:30:25;;;;;;;2.30;0.70;;;;;18.00;99983.00;;;;2218460;26;20304;-57
2024/04/19 03:31:25;;;;;;;1.65;0.60;;;;;18.00;99966.00;;;;2211284;26;20258;-58
2024/04/19 03:32:26;;;;;;;1.97;0.70;;;;;18.00;99966.00;;;;2218798;26;20242;-57
2024/04/19 03:33:26;;;;;;;2.00;0.60;;;;;18.00;99974.00;;;;2221876;26;20267;-58
2024/04/19 03:34:26;;;;;;;2.13;0.90;;;;;18.00;99974.00;;;;2218220;26;20361;-57
2024/04/19 03:35:27;;;;;;;1.60;0.60;;;;;18.00;99974.00;;;;2230715;26;20296;-58
2024/04/19 03:36:27;;;;;;;1.60;0.53;;;;;18.00;99974.00;;;;2221899;26;20359;-58
2024/04/19 03:37:28;;;;;;;2.07;0.70;;;;;18.00;99968.00;;;;2216664;26;20257;-58
2024/04/19 03:38:28;;;;;;;1.90;0.70;;;;;18.00;99960.00;;;;2218017;26;20351;-57
2024/04/19 03:39:28;;;;;;;1.70;0.80;;;;;18.00;99966.00;;;;2232628;26;20253;-57
2024/04/19 03:40:29;;;;;;;1.77;0.50;;;;;18.00;99971.00;;;;2229927;26;20257;-58
2024/04/19 03:41:33;;;;;;;1.90;0.60;;;;;18.00;99971.00;;;;2208702;26;20293;-57
2024/04/19 03:42:36;;;;;;;1.65;0.57;;;;;18.00;99969.00;;;;2230075;26;20254;-58
2024/04/19 03:43:41;;;;;;;2.10;0.50;;;;;18.00;99961.00;;;;2219736;26;20597;-58
2024/04/19 03:46:00;;;;;;;3.17;0.70;;;;;18.00;99960.00;;;;2224125;26;20261;-58
2024/04/19 03:47:01;;;;;;;1.60;0.50;;;;;18.00;99963.00;;;;2207409;26;20270;-59
2024/04/19 03:48:01;;;;;;;1.73;0.60;;;;;18.00;99957.00;;;;2226133;26;20265;-61
2024/04/19 03:49:01;;;;;;;1.53;0.50;;;;;18.00;99959.00;;;;2225020;26;20273;-59
2024/04/19 03:50:02;;;;;;;1.70;0.50;;;;;18.00;99950.00;;;;2216769;26;20684;-58
2024/04/19 03:51:02;;;;;;;1.70;0.60;;;;;18.00;99962.00;;;;2222397;26;20583;-58
2024/04/19 03:52:03;;;;;;;1.90;0.97;;;;;18.00;99958.00;;;;2207614;26;20310;-58
2024/04/19 03:53:03;;;;;;;1.40;0.50;;;;;18.00;99953.00;;;;2218293;26;20290;-58
2024/04/19 03:54:04;;;;;;;1.63;0.63;;;;;18.00;99955.00;;;;2217971;26;21031;-58
2024/04/19 03:55:05;;;;;;;2.33;0.80;;;;;18.00;99955.00;;;;2228984;26;20710;-58
2024/04/19 03:56:05;;;;;;;1.73;0.67;;;;;18.00;99962.00;;;;2225462;26;20254;-57
2024/04/19 03:57:05;;;;;;;1.70;0.60;;;;;18.00;99950.00;;;;2214714;26;21140;-58
2024/04/19 03:58:06;;;;;;;1.90;0.80;;;;;18.00;99957.00;;;;2220665;26;20247;-58
2024/04/19 03:59:06;;;;;;;1.70;0.60;;;;;18.00;99964.00;;;;2220440;26;20251;-58
2024/04/19 04:00:07;;;;;;;1.50;0.53;;;;;18.00;99953.00;;;;2229137;26;20287;-58
2024/04/19 04:01:07;;;;;;;2.40;0.73;;;;;18.00;99957.00;;;;2218717;26;20269;-57
2024/04/19 04:02:08;;;;;;;1.70;0.50;;;;;18.00;99944.00;;;;2208689;26;21126;-58
2024/04/19 04:03:08;;;;;;;1.77;0.70;;;;;18.00;99940.00;;;;2227846;26;20254;-57
2024/04/19 04:04:08;;;;;;;1.80;0.60;;;;;18.00;99934.00;;;;2226726;26;20294;-58
2024/04/19 04:05:08;;;;;;;2.23;0.70;;;;;18.00;99940.00;;;;2232124;26;20353;-58
2024/04/19 04:06:09;;;;;;;1.63;0.70;;;;;18.00;99925.00;;;;2230558;26;20368;-58
2024/04/19 04:07:09;;;;;;;1.80;0.63;;;;;18.00;99928.00;;;;2218124;26;20300;-57
2024/04/19 04:08:09;;;;;;;1.40;0.50;;;;;18.00;99920.00;;;;2227777;26;20255;-59
2024/04/19 04:09:10;;;;;;;1.70;0.70;;;;;18.00;99923.00;;;;2222786;26;20311;-58
2024/04/19 04:10:10;;;;;;;1.70;0.70;;;;;18.00;99908.00;;;;2218530;26;20254;-58
2024/04/19 04:11:12;;;;;;;1.70;0.60;;;;;18.00;99911.00;;;;2227835;26;20340;-58
2024/04/19 04:12:12;;;;;;;3.25;0.77;;;;;18.00;99907.00;;;;2216140;26;20752;-57
2024/04/19 04:13:12;;;;;;;2.43;0.60;;;;;18.00;99903.00;;;;2222925;26;20283;-58
2024/04/19 04:14:13;;;;;;;1.60;0.57;;;;;18.00;99900.00;;;;2224570;26;20257;-58
2024/04/19 04:15:13;;;;;;;1.53;0.60;;;;;18.00;99904.00;;;;2230210;26;20258;-58
2024/04/19 04:16:13;;;;;;;2.40;0.53;;;;;18.00;99906.00;;;;2203411;26;20439;-57
2024/04/19 04:17:14;;;;;;;4.20;0.67;;;;;18.00;99900.00;;;;2206188;26;20301;-58
2024/04/19 04:18:14;;;;;;;1.50;0.50;;;;;18.00;99892.00;;;;2222099;26;20263;-58
2024/04/19 04:19:14;;;;;;;1.50;0.50;;;;;18.00;99898.00;;;;2218027;26;20266;-58
2024/04/19 04:20:15;;;;;;;2.60;0.70;;;;;18.00;99895.00;;;;2223996;26;20286;-57
2024/04/19 04:21:15;;;;;;;1.73;0.70;;;;;18.00;99911.00;;;;2219848;26;20304;-58
2024/04/19 04:22:15;;;;;;;1.90;0.70;;;;;18.00;99884.00;;;;2208183;26;20274;-58
2024/04/19 04:23:16;;;;;;;1.80;0.60;;;;;18.00;99892.00;;;;2216591;26;20253;-58
2024/04/19 04:24:16;;;;;;;2.07;0.70;;;;;18.00;99883.00;;;;2224419;26;20257;-58
2024/04/19 04:25:16;;;;;;;2.13;0.70;;;;;17.60;99874.00;;;;2222159;26;20266;-58
2024/04/19 04:26:17;;;;;;;1.63;0.53;;;;;18.00;99880.00;;;;2216653;26;20305;-58
2024/04/19 04:27:17;;;;;;;1.90;0.70;;;;;18.00;99884.00;;;;2210845;26;20258;-57
2024/04/19 04:28:17;;;;;;;2.03;0.50;;;;;18.00;99878.00;;;;2226330;26;20383;-58
2024/04/19 04:29:18;;;;;;;1.83;0.80;;;;;18.00;99885.00;;;;2220702;26;20296;-58
2024/04/19 04:30:18;;;;;;;1.90;0.60;;;;;18.00;99876.00;;;;2217920;26;20314;-58
2024/04/19 04:31:18;;;;;;;1.50;0.40;;;;;18.00;99866.00;;;;2209792;26;20266;-58
2024/04/19 04:32:21;;;;;;;1.63;0.53;;;;;18.00;99872.00;;;;2221254;26;20251;-58
2024/04/19 04:33:21;;;;;;;1.70;0.68;;;;;18.00;99872.00;;;;2217710;26;20297;-58
2024/04/19 04:34:21;;;;;;;1.50;0.50;;;;;18.00;99865.00;;;;2228324;26;20283;-57
2024/04/19 04:35:22;;;;;;;2.50;0.80;;;;;18.00;99859.00;;;;2222724;26;20254;-58
2024/04/19 04:36:22;;;;;;;1.93;0.60;;;;;18.00;99851.00;;;;2211235;26;20254;-57
2024/04/19 04:37:22;;;;;;;1.40;0.40;;;;;18.00;99858.00;;;;2232847;26;20261;-58
2024/04/19 04:38:23;;;;;;;1.70;0.60;;;;;18.00;99851.00;;;;2218331;26;20352;-58
2024/04/19 04:39:23;;;;;;;1.90;0.60;;;;;18.00;99850.00;;;;2217766;26;20258;-58
2024/04/19 04:40:23;;;;;;;1.70;0.70;;;;;18.00;99848.00;;;;2221314;26;20263;-58
2024/04/19 04:41:24;;;;;;;2.90;0.87;;;;;18.00;99836.00;;;;2206726;26;20263;-57
2024/04/19 04:42:24;;;;;;;2.13;0.60;;;;;18.00;99846.00;;;;2228052;26;20271;-58
2024/04/19 04:43:24;;;;;;;2.57;0.80;;;;;18.00;99842.00;;;;2227580;26;20764;-58
2024/04/19 04:44:32;;;;;;;1.93;0.63;;;;;18.00;99845.00;;;;2226657;26;21815;-58
2024/04/19 04:45:32;;;;;;;1.45;0.50;;;;;18.00;99838.00;;;;2217439;26;20239;-58
2024/04/19 04:46:36;;;;;;;1.50;0.50;;;;;18.00;99837.00;;;;2215451;26;20245;-58
2024/04/19 04:47:36;;;;;;;2.60;0.70;;;;;18.00;99839.00;;;;2223925;26;20256;-58
2024/04/19 04:48:37;;;;;;;1.90;0.67;;;;;18.00;99838.00;;;;2217907;26;20723;-62
2024/04/19 04:49:37;;;;;;;1.87;0.57;;;;;18.00;99838.00;;;;2221702;26;20590;-59
2024/04/19 04:50:37;;;;;;;1.40;0.50;;;;;18.00;99837.00;;;;2216079;26;20742;-60
2024/04/19 04:51:38;;;;;;;1.70;0.77;;;;;18.00;99835.00;;;;2218565;26;20665;-58
2024/04/19 04:52:38;;;;;;;1.60;0.60;;;;;18.00;99826.00;;;;2217995;26;20963;-58
2024/04/19 04:53:38;;;;;;;1.60;0.60;;;;;18.00;99828.00;;;;2230193;26;20842;-58
2024/04/19 04:54:39;;;;;;;1.63;0.70;;;;;18.00;99825.00;;;;2220544;26;20270;-59
2024/04/19 04:55:39;;;;;;;1.70;0.90;;;;;18.00;99829.00;;;;2218293;26;20254;-58
2024/04/19 04:56:39;;;;;;;2.80;0.70;;;;;18.00;99823.00;;;;2207612;26;20283;-58
2024/04/19 04:57:40;;;;;;;1.60;0.50;;;;;18.00;99824.00;;;;2217837;26;20258;-57
2024/04/19 04:58:41;;;;;;;1.53;0.50;;;;;18.00;99818.00;;;;2217576;26;20304;-58
2024/04/19 04:59:41;;;;;;;1.60;0.53;;;;;18.00;99820.00;;;;2222440;26;20870;-58
2024/04/19 05:00:41;;;;;;;1.87;0.50;;;;;17.90;99824.00;;;;2228772;26;20710;-58
2024/04/19 05:01:42;;;;;;;1.67;0.60;;;;;18.00;99808.00;;;;2206286;26;20258;-58
2024/04/19 05:02:42;;;;;;;2.00;0.47;;;;;18.00;99807.00;;;;2219405;26;20292;-58
2024/04/19 05:03:47;;;;;;;1.40;0.40;;;;;18.00;99799.00;;;;2226609;26;20350;-58
2024/04/19 05:04:47;;;;;;;1.58;0.60;;;;;18.00;99810.00;;;;2220536;26;20597;-58
2024/04/19 05:05:48;;;;;;;1.37;0.40;;;;;18.00;99806.00;;;;2225562;26;20364;-58